createdAt,value
2023-03-03T00:01:35.853Z,100.00
2023-03-03T00:04:04.128Z,100.00
2023-03-03T00:06:32.611Z,100.00
2023-03-03T00:09:00.922Z,100.00
2023-03-03T00:11:29.221Z,100.00
2023-03-03T00:13:58.175Z,100.00
2023-03-03T00:16:33.568Z,100.00
2023-03-03T00:19:02.355Z,100.00
2023-03-03T00:21:32.052Z,100.00
2023-03-03T00:24:15.885Z,100.00
2023-03-03T00:26:46.026Z,100.00
2023-03-03T00:29:35.835Z,100.00
2023-03-03T00:32:26.286Z,100.00
2023-03-03T00:34:56.354Z,100.00
2023-03-03T00:37:29.122Z,100.00
2023-03-03T00:40:04.654Z,100.00
2023-03-03T00:42:35.537Z,100.00
2023-03-03T00:45:19.864Z,100.00
2023-03-03T00:47:49.558Z,100.00
2023-03-03T00:50:26.567Z,100.00
2023-03-03T00:53:06.660Z,100.00
2023-03-03T00:55:36.649Z,100.00
2023-03-03T00:58:05.613Z,100.00
2023-03-03T01:00:34.399Z,100.00
2023-03-03T01:03:06.576Z,100.00
2023-03-03T01:05:34.919Z,100.00
2023-03-03T01:08:04.101Z,100.00
2023-03-03T01:10:34.802Z,100.00
2023-03-03T01:13:03.312Z,100.00
2023-03-03T01:15:31.685Z,100.00
2023-03-03T01:18:00.017Z,100.00
2023-03-03T01:20:29.643Z,100.00
2023-03-03T01:22:57.841Z,100.00
2023-03-03T01:25:26.093Z,100.00
2023-03-03T01:27:54.473Z,100.00
2023-03-03T01:30:22.762Z,100.00
2023-03-03T01:32:51.090Z,100.00
2023-03-03T01:35:19.669Z,100.00
2023-03-03T01:37:49.696Z,100.00
2023-03-03T01:40:20.888Z,100.00
2023-03-03T01:42:49.378Z,100.00
2023-03-03T01:45:22.842Z,100.00
2023-03-03T01:47:58.336Z,100.00
2023-03-03T01:50:32.893Z,100.00
2023-03-03T01:53:04.733Z,100.00
2023-03-03T01:55:36.082Z,100.00
2023-03-03T01:58:07.472Z,100.00
2023-03-03T02:00:37.964Z,100.00
2023-03-03T02:03:06.527Z,100.00
2023-03-03T02:05:36.296Z,100.00
2023-03-03T02:08:06.445Z,100.00
2023-03-03T02:10:35.661Z,100.00
2023-03-03T02:13:03.972Z,100.00
2023-03-03T02:15:33.538Z,100.00
2023-03-03T02:18:06.138Z,100.00
2023-03-03T02:20:46.700Z,100.00
2023-03-03T02:23:18.234Z,100.00
2023-03-03T02:25:51.496Z,100.00
2023-03-03T02:28:21.415Z,100.00
2023-03-03T02:30:49.666Z,100.00
2023-03-03T02:33:17.914Z,100.00
2023-03-03T02:35:46.221Z,100.00
2023-03-03T02:38:21.012Z,100.00
2023-03-03T02:40:58.746Z,100.00
2023-03-03T02:43:34.380Z,100.00
2023-03-03T02:46:02.864Z,100.00
2023-03-03T02:48:31.230Z,100.00
2023-03-03T02:50:59.564Z,100.00
2023-03-03T02:53:27.842Z,100.00
2023-03-03T02:55:56.122Z,100.00
2023-03-03T02:58:24.472Z,100.00
2023-03-03T03:00:55.416Z,100.00
2023-03-03T03:03:24.066Z,100.00
2023-03-03T03:05:52.480Z,100.00
2023-03-03T03:08:20.977Z,100.00
2023-03-03T03:10:49.305Z,100.00
2023-03-03T03:13:17.570Z,100.00
2023-03-03T03:15:47.339Z,100.00
2023-03-03T03:18:17.497Z,100.00
2023-03-03T03:20:48.338Z,100.00
2023-03-03T03:23:16.833Z,100.00
2023-03-03T03:25:46.592Z,100.00
2023-03-03T03:28:16.045Z,100.00
2023-03-03T03:30:45.803Z,100.00
2023-03-03T03:33:14.445Z,100.00
2023-03-03T03:35:45.786Z,100.00
2023-03-03T03:38:14.686Z,100.00
2023-03-03T03:40:43.410Z,100.00
2023-03-03T03:43:11.683Z,100.00
2023-03-03T03:45:40.214Z,100.00
2023-03-03T03:48:08.492Z,100.00
2023-03-03T03:50:37.029Z,100.00
2023-03-03T03:53:06.687Z,100.00
2023-03-03T03:55:34.973Z,100.00
2023-03-03T03:58:03.204Z,100.00
2023-03-03T04:00:31.482Z,100.00
2023-03-03T04:02:59.746Z,100.00
2023-03-03T04:05:28.559Z,100.00
2023-03-03T04:07:56.816Z,100.00
2023-03-03T04:10:26.412Z,100.00
2023-03-03T04:12:54.683Z,100.00
2023-03-03T04:15:22.914Z,100.00
2023-03-03T04:17:51.253Z,100.00
2023-03-03T04:20:19.556Z,100.00
2023-03-03T04:22:47.916Z,100.00
2023-03-03T04:25:17.670Z,100.00
2023-03-03T04:27:47.496Z,100.00
2023-03-03T04:30:16.974Z,100.00
2023-03-03T04:32:45.762Z,100.00
2023-03-03T04:35:13.984Z,100.00
2023-03-03T04:37:42.180Z,100.00
2023-03-03T04:40:11.879Z,100.00
2023-03-03T04:42:40.163Z,100.00
2023-03-03T04:45:10.795Z,100.00
2023-03-03T04:47:39.029Z,100.00
2023-03-03T04:50:08.764Z,100.00
2023-03-03T04:52:37.016Z,100.00
2023-03-03T04:55:05.931Z,100.00
2023-03-03T04:57:34.142Z,100.00
2023-03-03T05:00:02.916Z,100.00
2023-03-03T05:02:32.497Z,100.00
2023-03-03T05:05:00.750Z,100.00
2023-03-03T05:07:29.033Z,100.00
2023-03-03T05:09:57.374Z,100.00
2023-03-03T05:12:25.819Z,100.00
2023-03-03T05:14:54.045Z,100.00
2023-03-03T05:17:22.313Z,100.00
2023-03-03T05:19:51.922Z,100.00
2023-03-03T05:22:20.174Z,100.00
2023-03-03T05:24:49.363Z,100.00
2023-03-03T05:27:17.767Z,100.00
2023-03-03T05:29:46.664Z,100.00
2023-03-03T05:32:15.007Z,100.00
2023-03-03T05:34:43.222Z,100.00
2023-03-03T05:37:12.744Z,100.00
2023-03-03T05:39:41.052Z,100.00
2023-03-03T05:42:10.229Z,100.00
2023-03-03T05:44:38.691Z,100.00
2023-03-03T05:47:06.929Z,100.00
2023-03-03T05:49:35.185Z,100.00
2023-03-03T05:52:03.654Z,100.00
2023-03-03T05:54:33.334Z,100.00
2023-03-03T05:57:01.575Z,100.00
2023-03-03T05:59:29.850Z,100.00
2023-03-03T06:01:58.128Z,100.00
2023-03-03T06:04:26.359Z,100.00
2023-03-03T06:06:54.649Z,100.00
2023-03-03T06:09:22.885Z,100.00
2023-03-03T06:11:53.459Z,100.00
2023-03-03T06:14:21.798Z,100.00
2023-03-03T06:16:50.132Z,100.00
2023-03-03T06:19:18.363Z,100.00
2023-03-03T06:21:46.576Z,100.00
2023-03-03T06:24:14.911Z,100.00
2023-03-03T06:26:43.349Z,100.00
2023-03-03T06:29:15.298Z,100.00
2023-03-03T06:31:44.783Z,100.00
2023-03-03T06:34:13.036Z,100.00
2023-03-03T06:36:41.377Z,100.00
2023-03-03T06:39:09.578Z,100.00
2023-03-03T06:41:38.261Z,100.00
2023-03-03T06:44:06.568Z,100.00
2023-03-03T06:46:36.247Z,100.00
2023-03-03T06:49:04.723Z,100.00
2023-03-03T06:51:35.930Z,100.00
2023-03-03T06:54:11.392Z,100.00
2023-03-03T06:56:39.741Z,100.00
2023-03-03T06:59:12.952Z,100.00
2023-03-03T07:01:43.496Z,100.00
2023-03-03T07:04:15.537Z,100.00
2023-03-03T07:06:44.056Z,100.00
2023-03-03T07:09:18.962Z,100.00
2023-03-03T07:11:47.324Z,100.00
2023-03-03T07:14:17.893Z,100.00
2023-03-03T07:16:47.381Z,100.00
2023-03-03T07:19:20.573Z,100.00
2023-03-03T07:21:49.123Z,100.00
2023-03-03T07:24:26.813Z,100.00
2023-03-03T07:26:57.617Z,100.00
2023-03-03T07:29:26.552Z,100.00
2023-03-03T07:31:57.819Z,100.00
2023-03-03T07:34:28.917Z,100.00
2023-03-03T07:37:00.059Z,100.00
2023-03-03T07:39:33.277Z,100.00
2023-03-03T07:42:10.653Z,100.00
2023-03-03T07:44:39.276Z,100.00
2023-03-03T07:47:20.107Z,100.00
2023-03-03T07:49:49.542Z,100.00
2023-03-03T07:52:24.912Z,100.00
2023-03-03T07:54:54.206Z,100.00
2023-03-03T07:57:24.916Z,100.00
2023-03-03T07:59:54.699Z,100.00
2023-03-03T08:02:40.339Z,100.00
2023-03-03T08:05:36.640Z,100.00
2023-03-03T08:08:31.721Z,100.00
2023-03-03T08:11:00.959Z,100.00
2023-03-03T08:13:37.762Z,100.00
2023-03-03T08:16:25.888Z,100.00
2023-03-03T08:19:03.561Z,100.00
2023-03-03T08:21:32.488Z,100.00
2023-03-03T08:24:00.850Z,100.00
2023-03-03T08:26:29.179Z,100.00
2023-03-03T08:28:57.529Z,100.00
2023-03-03T08:31:40.364Z,100.00
2023-03-03T08:34:10.664Z,100.00
2023-03-03T08:36:38.966Z,100.00
2023-03-03T08:39:07.263Z,93.05
2023-03-03T08:41:35.535Z,91.58
2023-03-03T08:44:03.959Z,100.00
2023-03-03T08:46:32.305Z,95.26
2023-03-03T08:49:00.637Z,93.78
2023-03-03T08:51:30.548Z,88.68
2023-03-03T08:53:58.841Z,100.00
2023-03-03T08:56:27.489Z,88.67
2023-03-03T08:59:03.389Z,100.00
2023-03-03T09:01:32.869Z,96.19
2023-03-03T09:04:01.301Z,100.00
2023-03-03T09:06:31.183Z,96.25
2023-03-03T09:08:59.581Z,94.59
2023-03-03T09:11:30.039Z,89.04
2023-03-03T09:14:01.734Z,91.05
2023-03-03T09:16:33.186Z,100.00
2023-03-03T09:19:17.274Z,95.86
2023-03-03T09:21:46.941Z,91.65
2023-03-03T09:24:24.546Z,92.18
2023-03-03T09:26:54.914Z,88.37
2023-03-03T09:29:29.146Z,81.58
2023-03-03T09:31:59.369Z,80.41
2023-03-03T09:34:39.038Z,75.90
2023-03-03T09:37:20.001Z,82.57
2023-03-03T09:39:50.354Z,76.24
2023-03-03T09:42:38.783Z,71.79
2023-03-03T09:45:39.689Z,73.78
2023-03-03T09:48:27.639Z,76.46
2023-03-03T09:51:14.378Z,74.04
2023-03-03T09:53:57.185Z,73.36
2023-03-03T09:56:29.445Z,66.34
2023-03-03T09:59:18.910Z,61.09
2023-03-03T10:01:56.832Z,69.21
2023-03-03T10:04:51.178Z,68.53
2023-03-03T10:07:38.216Z,72.17
2023-03-03T10:10:19.458Z,82.19
2023-03-03T10:12:53.729Z,76.19
2023-03-03T10:15:30.397Z,73.58
2023-03-03T10:18:04.517Z,68.11
2023-03-03T10:20:49.604Z,65.29
2023-03-03T10:23:23.378Z,62.55
2023-03-03T10:26:01.350Z,65.45
2023-03-03T10:29:03.792Z,62.27
2023-03-03T10:31:43.705Z,59.90
2023-03-03T10:34:22.337Z,61.73
2023-03-03T10:36:57.316Z,70.63
2023-03-03T10:39:39.801Z,75.21
2023-03-03T10:42:21.039Z,84.85
2023-03-03T10:45:02.204Z,62.50
2023-03-03T10:47:47.690Z,67.19
2023-03-03T10:50:20.576Z,61.61
2023-03-03T10:52:52.014Z,59.01
2023-03-03T10:55:39.637Z,65.96
2023-03-03T10:58:25.479Z,65.07
2023-03-03T11:01:01.479Z,65.03
2023-03-03T11:03:55.230Z,57.28
2023-03-03T11:06:27.592Z,58.60
2023-03-03T11:08:58.724Z,59.40
2023-03-03T11:11:36.512Z,57.99
2023-03-03T11:14:13.595Z,59.76
2023-03-03T11:16:50.232Z,61.55
2023-03-03T11:19:53.641Z,61.95
2023-03-03T11:22:35.937Z,61.52
2023-03-03T11:25:17.048Z,65.38
2023-03-03T11:28:24.098Z,61.96
2023-03-03T11:31:07.746Z,60.21
2023-03-03T11:33:41.412Z,60.75
2023-03-03T11:36:13.326Z,69.63
2023-03-03T11:38:47.946Z,66.42
2023-03-03T11:41:22.830Z,64.58
2023-03-03T11:43:53.120Z,57.40
2023-03-03T11:46:26.713Z,58.69
2023-03-03T11:48:59.799Z,59.09
2023-03-03T11:51:35.590Z,54.22
2023-03-03T11:54:07.184Z,61.38
2023-03-03T11:56:41.229Z,56.91
2023-03-03T11:59:26.853Z,61.56
2023-03-03T12:01:58.629Z,53.44
2023-03-03T12:04:30.983Z,59.20
2023-03-03T12:07:18.580Z,55.40
2023-03-03T12:09:53.423Z,56.77
2023-03-03T12:12:25.209Z,54.35
2023-03-03T12:15:06.899Z,56.08
2023-03-03T12:18:03.057Z,56.82
2023-03-03T12:20:35.037Z,59.95
2023-03-03T12:23:16.661Z,65.04
2023-03-03T12:25:46.701Z,67.75
2023-03-03T12:28:19.205Z,67.54
2023-03-03T12:31:08.869Z,66.09
2023-03-03T12:33:49.787Z,61.60
2023-03-03T12:36:26.812Z,56.14
2023-03-03T12:38:57.793Z,61.13
2023-03-03T12:41:33.135Z,58.11
2023-03-03T12:44:05.009Z,67.25
2023-03-03T12:46:41.304Z,63.65
2023-03-03T12:49:10.864Z,61.39
2023-03-03T12:51:48.354Z,58.52
2023-03-03T12:54:46.320Z,55.67
2023-03-03T12:57:20.894Z,56.94
2023-03-03T13:00:02.209Z,56.02
2023-03-03T13:02:46.445Z,53.07
2023-03-03T13:05:21.940Z,54.66
2023-03-03T13:07:56.982Z,58.27
2023-03-03T13:10:29.148Z,53.17
2023-03-03T13:13:02.099Z,50.38
2023-03-03T13:15:34.967Z,59.52
2023-03-03T13:18:25.877Z,53.41
2023-03-03T13:21:01.644Z,50.02
2023-03-03T13:23:39.654Z,52.53
2023-03-03T13:26:12.123Z,49.70
2023-03-03T13:28:56.548Z,51.21
2023-03-03T13:31:26.211Z,51.60
2023-03-03T13:33:56.974Z,49.99
2023-03-03T13:36:31.479Z,53.80
2023-03-03T13:39:02.523Z,55.46
2023-03-03T13:41:34.815Z,56.09
2023-03-03T13:44:06.359Z,56.92
2023-03-03T13:46:38.833Z,55.31
2023-03-03T13:49:18.254Z,53.09
2023-03-03T13:51:56.001Z,51.60
2023-03-03T13:54:51.593Z,50.45
2023-03-03T13:57:46.606Z,51.96
2023-03-03T14:00:22.974Z,50.39
2023-03-03T14:03:02.588Z,51.60
2023-03-03T14:05:37.482Z,52.06
2023-03-03T14:08:12.101Z,51.15
2023-03-03T14:10:44.888Z,50.20
2023-03-03T14:13:14.725Z,50.62
2023-03-03T14:15:49.916Z,53.62
2023-03-03T14:18:26.023Z,49.51
2023-03-03T14:20:55.276Z,47.50
2023-03-03T14:23:29.917Z,52.56
2023-03-03T14:26:00.187Z,53.45
2023-03-03T14:28:30.929Z,57.99
2023-03-03T14:31:00.256Z,57.65
2023-03-03T14:33:32.323Z,57.30
2023-03-03T14:36:06.746Z,53.22
2023-03-03T14:38:42.697Z,51.46
2023-03-03T14:41:22.760Z,55.80
2023-03-03T14:43:58.873Z,53.78
2023-03-03T14:46:36.834Z,51.02
2023-03-03T14:49:07.824Z,54.43
2023-03-03T14:51:42.732Z,53.27
2023-03-03T14:54:20.936Z,60.48
2023-03-03T14:57:04.698Z,53.42
2023-03-03T14:59:33.153Z,51.50
2023-03-03T15:02:23.946Z,51.17
2023-03-03T15:04:51.991Z,52.73
2023-03-03T15:07:29.787Z,50.74
2023-03-03T15:09:59.363Z,46.67
2023-03-03T15:12:36.127Z,48.92
2023-03-03T15:15:12.252Z,49.01
2023-03-03T15:17:42.719Z,51.18
2023-03-03T15:20:25.929Z,55.20
2023-03-03T15:23:05.193Z,55.87
2023-03-03T15:25:43.708Z,59.50
2023-03-03T15:28:37.353Z,55.20
2023-03-03T15:31:12.928Z,52.20
2023-03-03T15:33:46.984Z,50.61
2023-03-03T15:36:21.656Z,53.98
2023-03-03T15:38:57.130Z,60.45
2023-03-03T15:41:38.714Z,59.49
2023-03-03T15:44:22.316Z,59.78
2023-03-03T15:47:05.606Z,64.52
2023-03-03T15:49:53.896Z,70.68
2023-03-03T15:52:33.071Z,73.25
2023-03-03T15:55:11.724Z,70.21
2023-03-03T15:57:46.778Z,71.21
2023-03-03T16:00:26.794Z,74.22
2023-03-03T16:02:58.828Z,75.93
2023-03-03T16:05:30.552Z,77.52
2023-03-03T16:08:03.469Z,83.09
2023-03-03T16:10:38.874Z,82.59
2023-03-03T16:13:23.035Z,82.63
2023-03-03T16:15:57.704Z,86.46
2023-03-03T16:18:34.414Z,86.57
2023-03-03T16:21:14.399Z,87.44
2023-03-03T16:23:48.106Z,88.30
2023-03-03T16:26:27.945Z,90.09
2023-03-03T16:29:10.646Z,86.90
2023-03-03T16:31:43.049Z,88.60
2023-03-03T16:34:16.481Z,88.25
2023-03-03T16:36:58.577Z,89.60
2023-03-03T16:39:34.768Z,91.88
2023-03-03T16:42:06.220Z,85.83
2023-03-03T16:44:44.983Z,86.35
2023-03-03T16:47:23.410Z,88.19
2023-03-03T16:50:00.301Z,90.65
2023-03-03T16:52:34.577Z,93.47
2023-03-03T16:55:06.914Z,95.03
2023-03-03T16:57:47.151Z,97.31
2023-03-03T17:00:20.684Z,88.61
2023-03-03T17:03:22.324Z,84.41
2023-03-03T17:05:53.914Z,88.14
2023-03-03T17:08:44.360Z,92.32
2023-03-03T17:11:18.885Z,89.68
2023-03-03T17:14:04.215Z,97.42
2023-03-03T17:16:51.477Z,90.88
2023-03-03T17:19:32.080Z,85.98
2023-03-03T17:22:10.901Z,93.30
2023-03-03T17:24:47.006Z,99.68
2023-03-03T17:27:22.980Z,100.00
2023-03-03T17:29:57.608Z,100.00
2023-03-03T17:32:45.987Z,100.00
2023-03-03T17:35:28.062Z,100.00
2023-03-03T17:38:02.806Z,100.00
2023-03-03T17:40:47.432Z,100.00
2023-03-03T17:43:17.752Z,100.00
2023-03-03T17:45:47.604Z,100.00
2023-03-03T17:48:48.761Z,100.00
2023-03-03T17:51:25.625Z,100.00
2023-03-03T17:54:04.559Z,95.46
2023-03-03T17:56:34.662Z,91.26
2023-03-03T17:59:19.945Z,88.42
2023-03-03T18:02:05.758Z,88.01
2023-03-03T18:04:50.468Z,90.30
2023-03-03T18:07:29.588Z,90.98
2023-03-03T18:10:39.327Z,100.00
2023-03-03T18:13:21.609Z,100.00
2023-03-03T18:16:12.211Z,94.22
2023-03-03T18:18:44.010Z,89.94
2023-03-03T18:21:16.615Z,92.33
2023-03-03T18:23:47.111Z,89.10
2023-03-03T18:26:35.364Z,88.18
2023-03-03T18:29:19.913Z,96.92
2023-03-03T18:32:03.712Z,100.00
2023-03-03T18:34:38.284Z,100.00
2023-03-03T18:37:12.216Z,100.00
2023-03-03T18:39:45.898Z,98.45
2023-03-03T18:42:36.110Z,94.47
2023-03-03T18:45:43.728Z,95.08
2023-03-03T18:48:12.576Z,93.75
2023-03-03T18:50:42.026Z,92.65
2023-03-03T18:53:23.570Z,93.28
2023-03-03T18:55:53.363Z,92.53
2023-03-03T18:58:36.728Z,91.85
2023-03-03T19:01:36.290Z,91.62
2023-03-03T19:04:23.099Z,91.33
2023-03-03T19:07:26.744Z,90.80
2023-03-03T19:09:58.351Z,91.75
2023-03-03T19:12:49.512Z,93.43
2023-03-03T19:15:48.055Z,94.19
2023-03-03T19:18:18.849Z,95.77
2023-03-03T19:20:49.521Z,96.82
2023-03-03T19:23:18.613Z,96.73
2023-03-03T19:26:26.349Z,97.08
2023-03-03T19:29:00.992Z,97.36
2023-03-03T19:31:32.468Z,99.46
2023-03-03T19:34:06.323Z,99.28
2023-03-03T19:36:45.409Z,98.64
2023-03-03T19:39:25.654Z,100.00
2023-03-03T19:42:05.322Z,100.00
2023-03-03T19:44:49.748Z,100.00
2023-03-03T19:47:26.340Z,100.00
2023-03-03T19:50:04.731Z,100.00
2023-03-03T19:52:38.575Z,100.00
2023-03-03T19:55:24.711Z,100.00
2023-03-03T19:58:03.358Z,100.00
2023-03-03T20:00:37.030Z,100.00
2023-03-03T20:03:27.244Z,100.00
2023-03-03T20:05:58.368Z,100.00
2023-03-03T20:08:32.383Z,100.00
2023-03-03T20:11:04.503Z,100.00
2023-03-03T20:13:42.766Z,100.00
2023-03-03T20:16:22.590Z,100.00
2023-03-03T20:19:03.506Z,100.00
2023-03-03T20:21:34.224Z,100.00
2023-03-03T20:24:19.585Z,100.00
2023-03-03T20:26:57.758Z,100.00
2023-03-03T20:29:48.391Z,100.00
2023-03-03T20:32:24.423Z,100.00
2023-03-03T20:34:59.502Z,100.00
2023-03-03T20:37:34.888Z,100.00
2023-03-03T20:40:09.458Z,100.00
2023-03-03T20:42:45.422Z,100.00
2023-03-03T20:45:23.351Z,100.00
2023-03-03T20:48:03.663Z,100.00
2023-03-03T20:50:37.746Z,100.00
2023-03-03T20:53:15.038Z,100.00
2023-03-03T20:55:51.651Z,100.00
2023-03-03T20:58:23.425Z,100.00
2023-03-03T21:00:56.609Z,100.00
2023-03-03T21:03:34.118Z,100.00
2023-03-03T21:06:03.777Z,100.00
2023-03-03T21:08:53.220Z,100.00
2023-03-03T21:11:23.592Z,100.00
2023-03-03T21:13:54.143Z,100.00
2023-03-03T21:16:33.215Z,100.00
2023-03-03T21:19:04.326Z,100.00
2023-03-03T21:21:35.596Z,100.00
2023-03-03T21:24:04.009Z,100.00
2023-03-03T21:26:49.999Z,100.00
2023-03-03T21:29:20.464Z,100.00
2023-03-03T21:31:49.971Z,100.00
2023-03-03T21:34:25.181Z,100.00
2023-03-03T21:36:54.365Z,100.00
2023-03-03T21:39:31.446Z,100.00
2023-03-03T21:42:02.353Z,100.00
2023-03-03T21:44:32.960Z,100.00
2023-03-03T21:47:01.121Z,100.00
2023-03-03T21:49:30.646Z,100.00
2023-03-03T21:51:59.147Z,100.00
2023-03-03T21:54:27.583Z,100.00
2023-03-03T21:56:55.886Z,100.00
2023-03-03T21:59:24.124Z,100.00
2023-03-03T22:01:52.343Z,100.00
2023-03-03T22:04:20.573Z,100.00
2023-03-03T22:06:50.696Z,100.00
2023-03-03T22:09:19.047Z,100.00
2023-03-03T22:11:47.570Z,100.00
2023-03-03T22:14:15.790Z,100.00
2023-03-03T22:16:44.042Z,100.00
2023-03-03T22:19:12.307Z,100.00
2023-03-03T22:21:40.801Z,100.00
2023-03-03T22:24:10.579Z,100.00
2023-03-03T22:26:38.973Z,100.00
2023-03-03T22:29:07.458Z,100.00
2023-03-03T22:31:35.762Z,100.00
2023-03-03T22:34:04.556Z,100.00
2023-03-03T22:36:32.783Z,100.00
2023-03-03T22:39:01.968Z,100.00
2023-03-03T22:41:31.558Z,100.00
2023-03-03T22:43:59.839Z,100.00
2023-03-03T22:46:28.119Z,100.00
2023-03-03T22:48:56.364Z,100.00
2023-03-03T22:51:26.237Z,100.00
2023-03-03T22:53:54.468Z,100.00
2023-03-03T22:56:22.736Z,100.00
2023-03-03T22:58:52.313Z,100.00
2023-03-03T23:01:20.555Z,100.00
2023-03-03T23:03:50.187Z,100.00
2023-03-03T23:06:18.484Z,100.00
2023-03-03T23:08:46.783Z,100.00
2023-03-03T23:11:15.057Z,100.00
2023-03-03T23:13:43.283Z,100.00
2023-03-03T23:16:12.896Z,100.00
2023-03-03T23:18:41.175Z,100.00
2023-03-03T23:21:09.502Z,100.00
2023-03-03T23:23:37.810Z,100.00
2023-03-03T23:26:06.251Z,100.00
2023-03-03T23:28:34.478Z,100.00
2023-03-03T23:31:02.760Z,100.00
2023-03-03T23:33:32.466Z,100.00
2023-03-03T23:36:00.755Z,100.00
2023-03-03T23:38:29.066Z,100.00
2023-03-03T23:40:57.336Z,100.00
2023-03-03T23:43:25.628Z,100.00
2023-03-03T23:45:53.854Z,100.00
2023-03-03T23:48:22.088Z,100.00
2023-03-03T23:50:51.717Z,100.00
2023-03-03T23:53:20.305Z,100.00
2023-03-03T23:55:48.602Z,100.00
2023-03-03T23:58:16.907Z,100.00
